Time;durP1;ratioP1;P1;durP2;ratioP2;P2;SDS_P1;SDS_P2;PMS_P1;PMS_P2;Temp;Humidity;BMP_temperature;BMP_pressure;BME280_temperature;BME280_humidity;BME280_pressure;Samples;Min_cycle;Max_cycle;Signal;HPM_P1;HPM_P2
2022/06/08 16:22:41;;;;;;;;;;;;;;;;;;;;;
2022/06/08 16:25:12;;;;;;;2.58;1.80;;;;;;;20.34;71.68;94075.59;2616061;54;20149;-80
2022/06/08 18:13:28;;;;;;;2.80;1.70;;;;;;;16.04;89.16;93938.03;2614784;46;20117;-83
2022/06/08 18:38:53;;;;;;;1.90;1.73;;;;;;;15.87;87.80;93759.56;2612184;39;20574;-80
2022/06/08 18:42:14;;;;;;;5.03;2.90;;;;;;;17.75;86.72;94010.59;2613614;47;20272;-81
2022/06/08 18:45:07;;;;;;;2.57;2.37;;;;;;;15.50;87.11;93742.47;2613487;47;20171;-80
2022/06/08 18:48:11;;;;;;;2.17;1.97;;;;;;;16.87;88.92;93883.59;2614128;54;20156;-80
2022/06/08 20:28:44;;;;;;;2.90;2.70;;;;;;;13.65;98.20;93763.31;2613564;47;20177;-82
2022/06/08 20:31:49;;;;;;;;;;;;;;;;;;;;;
2022/06/08 20:37:40;;;;;;;2.93;2.73;;;;;;;14.71;99.67;93912.72;2616559;47;20172;-81
2022/06/08 20:40:10;;;;;;;3.40;3.20;;;;;;;15.57;100.00;94034.31;2617268;54;20172;-81
2022/06/08 20:42:39;;;;;;;5.17;4.53;;;;;;;15.69;100.00;94022.22;2617272;54;20478;-80
2022/06/08 20:45:12;;;;;;;3.70;3.40;;;;;;;15.92;99.52;93992.28;2617802;47;20157;-81
2022/06/08 20:47:42;;;;;;;3.17;2.57;;;;;;;16.73;95.11;94008.75;2618883;39;20573;-81
2022/06/08 20:50:11;;;;;;;2.87;2.67;;;;;;;16.76;91.72;94007.31;2618328;47;20187;-80
2022/06/08 20:52:39;;;;;;;2.43;2.27;;;;;;;16.74;89.56;93990.88;2618189;47;20268;-80
2022/06/08 20:55:09;;;;;;;2.87;2.53;;;;;;;16.69;88.76;94020.91;2618229;47;20157;-81
2022/06/08 20:57:38;;;;;;;2.47;2.20;;;;;;;16.50;90.27;94017.31;2618370;54;20152;-81
2022/06/08 21:00:12;;;;;;;2.47;2.27;;;;;;;16.26;91.98;94026.59;2617844;54;20185;-80
2022/06/08 21:02:41;;;;;;;2.27;2.07;;;;;;;15.59;92.93;93957.25;2618014;54;20157;-81
2022/06/08 21:05:11;;;;;;;2.07;1.97;;;;;;;16.37;93.65;94026.63;2618180;47;20503;-81
2022/06/08 21:07:40;;;;;;;1.93;1.83;;;;;;;17.24;89.29;93992.88;2618261;54;20172;-81
2022/06/08 21:10:11;;;;;;;2.67;2.47;;;;;;;17.87;85.05;94000.50;2618013;47;20276;-81
2022/06/08 21:12:41;;;;;;;2.17;2.03;;;;;;;18.50;80.54;94002.91;2619033;47;20184;-81
2022/06/08 21:15:18;;;;;;;4.00;2.37;;;;;;;18.23;79.52;94003.13;2618523;54;20149;-80
2022/06/08 21:17:47;;;;;;;2.87;2.67;;;;;;;18.33;80.29;94025.97;2618210;54;20141;-81
2022/06/08 21:20:17;;;;;;;2.87;2.67;;;;;;;17.67;83.04;93990.56;2618441;54;20173;-81
2022/06/08 21:22:46;;;;;;;2.67;2.47;;;;;;;18.74;80.49;94034.28;2618982;39;20577;-81
2022/06/08 21:25:16;;;;;;;2.30;2.17;;;;;;;18.74;77.46;93968.31;2618561;47;20182;-82
2022/06/08 21:27:46;;;;;;;2.10;2.00;;;;;;;19.59;74.54;94039.19;2618414;54;20199;-82
2022/06/08 21:30:19;;;;;;;2.20;2.00;;;;;;;19.66;75.01;94031.94;2618513;54;20160;-81
2022/06/08 21:32:48;;;;;;;2.50;2.30;;;;;;;19.54;75.25;94026.34;2618219;46;20157;-82
2022/06/08 21:35:18;;;;;;;2.08;1.95;;;;;;;19.31;73.55;93988.50;2618617;39;20583;-81
2022/06/08 21:37:48;;;;;;;1.87;1.77;;;;;;;19.26;75.59;93992.19;2618183;47;20149;-81
2022/06/08 21:40:20;;;;;;;2.03;1.90;;;;;;;19.65;74.69;94021.88;2619022;39;20624;-81
2022/06/08 21:42:50;;;;;;;1.70;1.60;;;;;;;19.76;74.28;94023.19;2618706;39;20550;-82
2022/06/08 21:45:26;;;;;;;1.93;1.83;;;;;;;19.85;73.25;94018.75;2618212;47;20175;-81
2022/06/08 21:47:55;;;;;;;2.17;2.03;;;;;;;19.27;74.80;93977.06;2618203;54;20172;-81
2022/06/08 21:50:25;;;;;;;1.90;1.70;;;;;;;18.77;76.96;93998.41;2618344;54;20148;-82
2022/06/08 21:52:54;;;;;;;4.30;1.80;;;;;;;18.34;80.12;93978.66;2617895;47;20176;-82
2022/06/08 21:55:26;;;;;;;2.13;1.90;;;;;;;18.14;82.29;93998.91;2618410;54;20141;-82
2022/06/08 21:57:56;;;;;;;2.10;2.00;;;;;;;18.28;83.06;94007.41;2618269;47;20141;-82
2022/06/08 22:00:32;;;;;;;3.77;2.60;;;;;;;18.31;80.92;93994.44;2618062;54;20156;-82
2022/06/08 22:03:01;;;;;;;2.63;2.43;;;;;;;17.91;81.23;94003.31;2617849;54;20680;-82
2022/06/08 22:05:30;;;;;;;3.03;2.83;;;;;;;17.66;83.26;93994.88;2618185;47;20161;-81
2022/06/08 22:07:59;;;;;;;3.13;2.93;;;;;;;17.62;83.79;93971.25;2618323;54;20137;-82
2022/06/08 22:10:28;;;;;;;3.10;2.90;;;;;;;17.69;84.38;93998.44;2617785;54;20161;-80
2022/06/08 22:12:58;;;;;;;3.87;3.43;;;;;;;17.48;84.94;93982.78;2618175;47;20211;-80
2022/06/08 22:15:29;;;;;;;3.20;2.93;;;;;;;16.73;85.48;93920.81;2617671;47;20172;-80
2022/06/08 22:17:58;;;;;;;2.50;2.30;;;;;;;18.00;83.95;93999.69;2618100;54;20144;-81
2022/06/08 22:20:28;;;;;;;3.10;2.90;;;;;;;17.22;84.82;93904.19;2618416;39;20565;-81
2022/06/08 22:22:57;;;;;;;4.00;2.60;;;;;;;17.24;85.15;93937.78;2617940;47;20180;-81
2022/06/08 22:25:30;;;;;;;2.10;1.90;;;;;;;17.17;87.49;93985.06;2618271;39;20570;-81
2022/06/08 22:27:59;;;;;;;2.40;2.20;;;;;;;17.04;89.26;93987.94;2618191;54;20137;-81
2022/06/08 22:30:31;;;;;;;2.97;2.73;;;;;;;17.87;85.33;93986.19;2617850;47;20272;-81
2022/06/08 22:33:00;;;;;;;2.43;2.23;;;;;;;17.93;84.96;93989.72;2618215;54;20160;-81
2022/06/08 22:35:30;;;;;;;5.73;2.63;;;;;;;18.03;85.34;93983.94;2618134;47;20153;-81
2022/06/08 22:38:00;;;;;;;2.60;2.40;;;;;;;18.11;84.14;93980.28;2617826;54;20180;-81
2022/06/08 22:40:29;;;;;;;2.83;2.63;;;;;;;18.11;84.23;93968.81;2618191;47;20161;-81
2022/06/08 22:42:59;;;;;;;2.30;2.20;;;;;;;17.77;84.32;93936.09;2617682;47;20204;-82
2022/06/08 22:45:35;;;;;;;2.47;2.27;;;;;;;17.77;84.04;93949.00;2617563;54;20165;-82
2022/06/08 22:48:04;;;;;;;2.63;2.43;;;;;;;18.38;81.44;93947.09;2617109;47;20679;-82
2022/06/08 22:50:36;;;;;;;2.07;1.97;;;;;;;18.93;80.18;93980.31;2617606;47;20157;-81
2022/06/08 22:53:06;;;;;;;3.63;2.60;;;;;;;18.40;80.36;93911.97;2617552;47;20386;-81
2022/06/08 22:55:37;;;;;;;2.00;1.73;;;;;;;19.38;76.51;93966.19;2617399;54;20995;-82
2022/06/08 22:58:07;;;;;;;2.70;1.80;;;;;;;19.93;73.06;93974.13;2617368;54;20168;-82
2022/06/08 23:00:40;;;;;;;2.90;2.60;;;;;;;19.78;71.91;93927.63;2617587;54;20169;-81
2022/06/08 23:03:09;;;;;;;2.17;2.08;;;;;;;19.79;74.16;93946.28;2617158;54;20199;-81
2022/06/08 23:05:38;;;;;;;2.50;2.30;;;;;;;19.54;73.87;93968.91;2617696;47;20179;-81
2022/06/08 23:08:08;;;;;;;1.43;1.33;;;;;;;19.60;73.38;93950.84;2617517;54;20731;-81
2022/06/08 23:10:38;;;;;;;1.60;1.50;;;;;;;19.46;75.68;93971.81;2617628;54;20145;-82
2022/06/08 23:13:07;;;;;;;2.27;2.17;;;;;;;19.36;77.18;93969.09;2617654;47;20692;-82
2022/06/08 23:20:27;;;;;;;2.00;1.90;;;;;;;19.26;78.02;93960.59;2617101;47;20165;-82
2022/06/08 23:21:09;;;;;;;1.70;1.23;;;;;;;19.43;74.14;93913.00;2617467;47;20152;-81
2022/06/08 23:23:38;;;;;;;2.00;1.90;;;;;;;18.94;76.35;93930.09;2617450;47;20161;-81
2022/06/08 23:26:07;;;;;;;1.87;1.77;;;;;;;18.37;79.14;93942.81;2617332;47;20184;-82
2022/06/08 23:28:35;;;;;;;2.13;1.93;;;;;;;17.25;82.36;93899.88;2617477;54;20176;-82
2022/06/08 23:31:07;;;;;;;2.70;2.50;;;;;;;16.69;85.57;93900.81;2617183;47;20161;-81
2022/06/08 23:33:35;;;;;;;2.07;1.87;;;;;;;16.92;89.20;93927.22;2617524;47;20156;-81
2022/06/08 23:36:04;;;;;;;2.10;2.00;;;;;;;16.98;87.61;93887.84;2616565;54;20169;-82
2022/06/08 23:38:32;;;;;;;1.83;1.73;;;;;;;16.76;85.97;93853.63;2617193;54;20200;-81
2022/06/08 23:41:01;;;;;;;1.90;1.80;;;;;;;17.16;86.15;93886.34;2617503;47;20184;-82
2022/06/08 23:43:30;;;;;;;1.60;1.50;;;;;;;17.16;84.41;93909.94;2617246;54;20169;-82
2022/06/08 23:45:59;;;;;;;2.40;2.30;;;;;;;16.68;86.66;93888.66;2617391;54;20153;-82
2022/06/08 23:48:30;;;;;;;2.77;2.57;;;;;;;16.77;89.39;93922.97;2617409;47;20184;-82
2022/06/08 23:51:06;;;;;;;1.37;1.33;;;;;;;16.73;89.96;93886.50;2617253;47;20176;-80
2022/06/08 23:53:37;;;;;;;1.87;1.77;;;;;;;17.84;83.08;93890.25;2617192;47;20692;-82
2022/06/08 23:56:06;;;;;;;2.10;2.00;;;;;;;18.63;78.13;93898.16;2617347;47;20644;-81
2022/06/08 23:58:36;;;;;;;2.27;2.07;;;;;;;19.12;77.08;93924.88;2617437;54;20168;-82
